sensor_id;sensor_type;location;lat;lon;timestamp;P1;durP1;ratioP1;P2;durP2;ratioP2
19907;SDS011;10116;53.112;7.356;2022-12-20T00:01:11;1.87;;;1.73;;
19907;SDS011;10116;53.112;7.356;2022-12-20T00:03:39;1.50;;;1.40;;
19907;SDS011;10116;53.112;7.356;2022-12-20T00:06:05;2.60;;;1.73;;
19907;SDS011;10116;53.112;7.356;2022-12-20T00:08:31;1.80;;;1.70;;
19907;SDS011;10116;53.112;7.356;2022-12-20T00:10:59;1.90;;;1.70;;
19907;SDS011;10116;53.112;7.356;2022-12-20T00:13:25;2.07;;;1.97;;
19907;SDS011;10116;53.112;7.356;2022-12-20T00:16:02;1.80;;;1.70;;
19907;SDS011;10116;53.112;7.356;2022-12-20T00:18:32;1.57;;;1.57;;
19907;SDS011;10116;53.112;7.356;2022-12-20T00:20:58;1.70;;;1.60;;
19907;SDS011;10116;53.112;7.356;2022-12-20T00:23:25;1.40;;;1.40;;
19907;SDS011;10116;53.112;7.356;2022-12-20T00:25:51;4.20;;;1.73;;
19907;SDS011;10116;53.112;7.356;2022-12-20T00:28:17;5.77;;;2.20;;
19907;SDS011;10116;53.112;7.356;2022-12-20T00:30:42;3.10;;;1.83;;
19907;SDS011;10116;53.112;7.356;2022-12-20T00:33:08;3.57;;;2.50;;
19907;SDS011;10116;53.112;7.356;2022-12-20T00:35:34;2.20;;;1.90;;
19907;SDS011;10116;53.112;7.356;2022-12-20T00:37:59;1.90;;;1.80;;
19907;SDS011;10116;53.112;7.356;2022-12-20T00:40:25;1.77;;;1.67;;
19907;SDS011;10116;53.112;7.356;2022-12-20T00:42:50;1.60;;;1.50;;
19907;SDS011;10116;53.112;7.356;2022-12-20T00:45:16;4.90;;;2.00;;
19907;SDS011;10116;53.112;7.356;2022-12-20T00:47:41;1.93;;;1.60;;
19907;SDS011;10116;53.112;7.356;2022-12-20T00:50:07;1.80;;;1.70;;
19907;SDS011;10116;53.112;7.356;2022-12-20T00:52:33;2.57;;;1.80;;
19907;SDS011;10116;53.112;7.356;2022-12-20T00:54:58;2.87;;;2.30;;
19907;SDS011;10116;53.112;7.356;2022-12-20T00:57:24;3.63;;;1.53;;
19907;SDS011;10116;53.112;7.356;2022-12-20T00:59:49;2.10;;;1.60;;
19907;SDS011;10116;53.112;7.356;2022-12-20T01:02:15;2.97;;;1.80;;
19907;SDS011;10116;53.112;7.356;2022-12-20T01:04:41;2.70;;;1.83;;
19907;SDS011;10116;53.112;7.356;2022-12-20T01:07:06;2.90;;;1.77;;
19907;SDS011;10116;53.112;7.356;2022-12-20T01:09:32;1.90;;;1.70;;
19907;SDS011;10116;53.112;7.356;2022-12-20T01:11:57;2.57;;;1.93;;
19907;SDS011;10116;53.112;7.356;2022-12-20T01:14:23;1.57;;;1.47;;
19907;SDS011;10116;53.112;7.356;2022-12-20T01:16:49;2.13;;;1.60;;
19907;SDS011;10116;53.112;7.356;2022-12-20T01:19:15;1.73;;;1.63;;
19907;SDS011;10116;53.112;7.356;2022-12-20T01:21:42;1.80;;;1.70;;
19907;SDS011;10116;53.112;7.356;2022-12-20T01:24:11;1.70;;;1.70;;
19907;SDS011;10116;53.112;7.356;2022-12-20T01:26:41;1.90;;;1.63;;
19907;SDS011;10116;53.112;7.356;2022-12-20T01:29:07;2.20;;;1.83;;
19907;SDS011;10116;53.112;7.356;2022-12-20T01:31:33;1.70;;;1.60;;
19907;SDS011;10116;53.112;7.356;2022-12-20T01:33:59;1.73;;;1.60;;
19907;SDS011;10116;53.112;7.356;2022-12-20T01:36:26;2.70;;;1.70;;
19907;SDS011;10116;53.112;7.356;2022-12-20T01:38:57;1.30;;;1.30;;
19907;SDS011;10116;53.112;7.356;2022-12-20T01:41:25;2.30;;;1.80;;
19907;SDS011;10116;53.112;7.356;2022-12-20T01:46:17;2.23;;;1.73;;
19907;SDS011;10116;53.112;7.356;2022-12-20T01:51:26;2.67;;;1.80;;
19907;SDS011;10116;53.112;7.356;2022-12-20T01:53:55;1.67;;;1.50;;
19907;SDS011;10116;53.112;7.356;2022-12-20T01:56:26;1.43;;;1.40;;
19907;SDS011;10116;53.112;7.356;2022-12-20T01:58:52;1.43;;;1.30;;
19907;SDS011;10116;53.112;7.356;2022-12-20T02:01:20;1.70;;;1.60;;
19907;SDS011;10116;53.112;7.356;2022-12-20T02:03:48;1.57;;;1.47;;
19907;SDS011;10116;53.112;7.356;2022-12-20T02:06:20;1.57;;;1.47;;
19907;SDS011;10116;53.112;7.356;2022-12-20T02:08:48;1.80;;;1.40;;
19907;SDS011;10116;53.112;7.356;2022-12-20T02:12:02;1.37;;;1.27;;
19907;SDS011;10116;53.112;7.356;2022-12-20T02:14:27;2.03;;;1.37;;
19907;SDS011;10116;53.112;7.356;2022-12-20T02:16:58;2.93;;;1.43;;
19907;SDS011;10116;53.112;7.356;2022-12-20T02:23:15;1.70;;;1.60;;
19907;SDS011;10116;53.112;7.356;2022-12-20T02:31:56;1.57;;;1.47;;
19907;SDS011;10116;53.112;7.356;2022-12-20T02:34:43;1.77;;;1.67;;
19907;SDS011;10116;53.112;7.356;2022-12-20T02:37:09;1.70;;;1.60;;
19907;SDS011;10116;53.112;7.356;2022-12-20T02:39:35;2.60;;;1.30;;
19907;SDS011;10116;53.112;7.356;2022-12-20T02:42:04;1.67;;;1.57;;
19907;SDS011;10116;53.112;7.356;2022-12-20T02:44:36;0.93;;;0.93;;
19907;SDS011;10116;53.112;7.356;2022-12-20T02:47:32;1.40;;;1.30;;
19907;SDS011;10116;53.112;7.356;2022-12-20T02:50:04;1.17;;;1.17;;
19907;SDS011;10116;53.112;7.356;2022-12-20T02:52:31;1.50;;;1.40;;
19907;SDS011;10116;53.112;7.356;2022-12-20T02:54:58;1.23;;;1.23;;
19907;SDS011;10116;53.112;7.356;2022-12-20T02:57:26;2.13;;;1.60;;
19907;SDS011;10116;53.112;7.356;2022-12-20T02:59:57;1.80;;;1.70;;
19907;SDS011;10116;53.112;7.356;2022-12-20T03:02:37;1.40;;;1.30;;
19907;SDS011;10116;53.112;7.356;2022-12-20T03:05:23;1.80;;;1.23;;
19907;SDS011;10116;53.112;7.356;2022-12-20T03:07:50;1.33;;;1.20;;
19907;SDS011;10116;53.112;7.356;2022-12-20T03:10:17;1.10;;;1.10;;
19907;SDS011;10116;53.112;7.356;2022-12-20T03:12:44;1.60;;;1.50;;
19907;SDS011;10116;53.112;7.356;2022-12-20T03:15:10;1.50;;;1.40;;
19907;SDS011;10116;53.112;7.356;2022-12-20T03:17:35;1.63;;;1.17;;
19907;SDS011;10116;53.112;7.356;2022-12-20T03:20:01;1.13;;;1.10;;
19907;SDS011;10116;53.112;7.356;2022-12-20T03:22:28;2.10;;;1.50;;
19907;SDS011;10116;53.112;7.356;2022-12-20T03:24:55;2.10;;;1.40;;
19907;SDS011;10116;53.112;7.356;2022-12-20T03:27:20;2.60;;;1.33;;
19907;SDS011;10116;53.112;7.356;2022-12-20T03:29:46;1.60;;;1.50;;
19907;SDS011;10116;53.112;7.356;2022-12-20T03:32:12;1.30;;;1.20;;
19907;SDS011;10116;53.112;7.356;2022-12-20T03:34:37;1.30;;;1.27;;
19907;SDS011;10116;53.112;7.356;2022-12-20T03:37:03;1.30;;;1.20;;
19907;SDS011;10116;53.112;7.356;2022-12-20T03:39:28;1.17;;;1.03;;
19907;SDS011;10116;53.112;7.356;2022-12-20T03:41:54;1.47;;;1.37;;
19907;SDS011;10116;53.112;7.356;2022-12-20T03:44:19;2.30;;;1.60;;
19907;SDS011;10116;53.112;7.356;2022-12-20T03:46:45;1.20;;;1.20;;
19907;SDS011;10116;53.112;7.356;2022-12-20T03:49:11;1.60;;;1.50;;
19907;SDS011;10116;53.112;7.356;2022-12-20T03:51:36;1.20;;;1.20;;
19907;SDS011;10116;53.112;7.356;2022-12-20T03:54:02;1.73;;;1.63;;
19907;SDS011;10116;53.112;7.356;2022-12-20T03:56:27;1.87;;;1.10;;
19907;SDS011;10116;53.112;7.356;2022-12-20T03:58:53;1.20;;;1.07;;
19907;SDS011;10116;53.112;7.356;2022-12-20T04:01:20;1.53;;;1.43;;
19907;SDS011;10116;53.112;7.356;2022-12-20T04:03:47;1.63;;;1.53;;
19907;SDS011;10116;53.112;7.356;2022-12-20T04:06:13;1.07;;;1.07;;
19907;SDS011;10116;53.112;7.356;2022-12-20T04:08:40;2.33;;;1.53;;
19907;SDS011;10116;53.112;7.356;2022-12-20T04:11:05;1.30;;;1.20;;
19907;SDS011;10116;53.112;7.356;2022-12-20T04:13:40;1.13;;;1.13;;
19907;SDS011;10116;53.112;7.356;2022-12-20T04:16:07;1.20;;;1.20;;
19907;SDS011;10116;53.112;7.356;2022-12-20T04:18:32;2.30;;;1.27;;
19907;SDS011;10116;53.112;7.356;2022-12-20T04:20:59;1.63;;;1.53;;
19907;SDS011;10116;53.112;7.356;2022-12-20T04:23:25;1.07;;;1.07;;
19907;SDS011;10116;53.112;7.356;2022-12-20T04:25:51;1.60;;;1.20;;
19907;SDS011;10116;53.112;7.356;2022-12-20T04:28:16;3.60;;;1.47;;
19907;SDS011;10116;53.112;7.356;2022-12-20T04:30:42;1.20;;;1.10;;
19907;SDS011;10116;53.112;7.356;2022-12-20T04:33:07;1.10;;;1.10;;
19907;SDS011;10116;53.112;7.356;2022-12-20T04:35:33;1.60;;;1.30;;
19907;SDS011;10116;53.112;7.356;2022-12-20T04:37:59;1.53;;;1.40;;
19907;SDS011;10116;53.112;7.356;2022-12-20T04:40:25;1.30;;;1.30;;
19907;SDS011;10116;53.112;7.356;2022-12-20T04:42:50;1.30;;;1.20;;
19907;SDS011;10116;53.112;7.356;2022-12-20T04:45:16;1.57;;;1.47;;
19907;SDS011;10116;53.112;7.356;2022-12-20T04:47:41;1.10;;;1.10;;
19907;SDS011;10116;53.112;7.356;2022-12-20T04:50:07;1.37;;;1.27;;
19907;SDS011;10116;53.112;7.356;2022-12-20T04:52:33;1.20;;;1.17;;
19907;SDS011;10116;53.112;7.356;2022-12-20T04:55:17;1.10;;;1.10;;
19907;SDS011;10116;53.112;7.356;2022-12-20T04:57:43;1.57;;;1.10;;
19907;SDS011;10116;53.112;7.356;2022-12-20T05:00:09;1.40;;;1.30;;
19907;SDS011;10116;53.112;7.356;2022-12-20T05:02:35;1.20;;;1.10;;
19907;SDS011;10116;53.112;7.356;2022-12-20T05:05:00;1.40;;;1.30;;
19907;SDS011;10116;53.112;7.356;2022-12-20T05:07:26;1.70;;;1.17;;
19907;SDS011;10116;53.112;7.356;2022-12-20T05:09:52;1.40;;;1.30;;
19907;SDS011;10116;53.112;7.356;2022-12-20T05:12:17;1.03;;;0.93;;
19907;SDS011;10116;53.112;7.356;2022-12-20T05:14:43;1.07;;;1.07;;
19907;SDS011;10116;53.112;7.356;2022-12-20T05:17:08;1.00;;;1.00;;
19907;SDS011;10116;53.112;7.356;2022-12-20T05:19:34;1.67;;;1.40;;
19907;SDS011;10116;53.112;7.356;2022-12-20T05:21:59;0.80;;;0.80;;
19907;SDS011;10116;53.112;7.356;2022-12-20T05:24:44;1.07;;;1.07;;
19907;SDS011;10116;53.112;7.356;2022-12-20T05:27:28;1.20;;;1.10;;
19907;SDS011;10116;53.112;7.356;2022-12-20T05:29:54;1.10;;;1.10;;
19907;SDS011;10116;53.112;7.356;2022-12-20T05:32:20;1.10;;;1.10;;
19907;SDS011;10116;53.112;7.356;2022-12-20T05:34:45;1.00;;;1.00;;
19907;SDS011;10116;53.112;7.356;2022-12-20T05:37:11;1.57;;;1.30;;
19907;SDS011;10116;53.112;7.356;2022-12-20T05:39:36;1.07;;;1.07;;
19907;SDS011;10116;53.112;7.356;2022-12-20T05:42:02;1.00;;;0.90;;
19907;SDS011;10116;53.112;7.356;2022-12-20T05:44:28;1.03;;;1.03;;
19907;SDS011;10116;53.112;7.356;2022-12-20T05:46:53;1.67;;;1.57;;
19907;SDS011;10116;53.112;7.356;2022-12-20T05:49:19;1.00;;;1.00;;
19907;SDS011;10116;53.112;7.356;2022-12-20T05:51:44;1.20;;;1.10;;
19907;SDS011;10116;53.112;7.356;2022-12-20T05:54:10;1.70;;;1.50;;
19907;SDS011;10116;53.112;7.356;2022-12-20T05:56:35;1.00;;;0.90;;
19907;SDS011;10116;53.112;7.356;2022-12-20T05:59:01;0.80;;;0.80;;
19907;SDS011;10116;53.112;7.356;2022-12-20T06:01:27;0.97;;;0.97;;
19907;SDS011;10116;53.112;7.356;2022-12-20T06:03:52;2.03;;;1.50;;
19907;SDS011;10116;53.112;7.356;2022-12-20T06:06:18;1.10;;;1.10;;
19907;SDS011;10116;53.112;7.356;2022-12-20T06:08:43;1.37;;;1.20;;
19907;SDS011;10116;53.112;7.356;2022-12-20T06:11:09;1.30;;;1.13;;
19907;SDS011;10116;53.112;7.356;2022-12-20T06:13:35;1.40;;;1.30;;
19907;SDS011;10116;53.112;7.356;2022-12-20T06:16:01;1.80;;;1.07;;
19907;SDS011;10116;53.112;7.356;2022-12-20T06:18:27;1.17;;;1.17;;
19907;SDS011;10116;53.112;7.356;2022-12-20T06:20:52;1.30;;;1.20;;
19907;SDS011;10116;53.112;7.356;2022-12-20T06:23:19;0.80;;;0.80;;
19907;SDS011;10116;53.112;7.356;2022-12-20T06:25:45;2.10;;;1.10;;
19907;SDS011;10116;53.112;7.356;2022-12-20T06:28:11;1.17;;;0.93;;
19907;SDS011;10116;53.112;7.356;2022-12-20T06:30:36;1.00;;;1.00;;
19907;SDS011;10116;53.112;7.356;2022-12-20T06:33:02;0.90;;;0.90;;
19907;SDS011;10116;53.112;7.356;2022-12-20T06:35:28;0.97;;;0.97;;
19907;SDS011;10116;53.112;7.356;2022-12-20T06:37:54;0.80;;;0.80;;
19907;SDS011;10116;53.112;7.356;2022-12-20T06:40:21;0.90;;;0.90;;
19907;SDS011;10116;53.112;7.356;2022-12-20T06:42:46;1.27;;;1.00;;
19907;SDS011;10116;53.112;7.356;2022-12-20T06:45:14;0.90;;;0.90;;
19907;SDS011;10116;53.112;7.356;2022-12-20T06:47:40;0.97;;;0.97;;
19907;SDS011;10116;53.112;7.356;2022-12-20T06:50:06;1.07;;;1.07;;
19907;SDS011;10116;53.112;7.356;2022-12-20T06:52:32;2.83;;;1.10;;
19907;SDS011;10116;53.112;7.356;2022-12-20T06:54:58;0.90;;;0.90;;
19907;SDS011;10116;53.112;7.356;2022-12-20T06:57:23;1.50;;;1.40;;
19907;SDS011;10116;53.112;7.356;2022-12-20T06:59:49;1.10;;;1.10;;
19907;SDS011;10116;53.112;7.356;2022-12-20T07:02:14;1.50;;;0.90;;
19907;SDS011;10116;53.112;7.356;2022-12-20T07:04:40;2.30;;;1.30;;
19907;SDS011;10116;53.112;7.356;2022-12-20T07:07:06;1.70;;;1.20;;
19907;SDS011;10116;53.112;7.356;2022-12-20T07:09:32;2.27;;;1.10;;
19907;SDS011;10116;53.112;7.356;2022-12-20T07:11:57;1.50;;;1.20;;
19907;SDS011;10116;53.112;7.356;2022-12-20T07:14:23;6.23;;;1.00;;
19907;SDS011;10116;53.112;7.356;2022-12-20T07:16:49;2.83;;;1.40;;
19907;SDS011;10116;53.112;7.356;2022-12-20T07:19:15;4.70;;;1.07;;
19907;SDS011;10116;53.112;7.356;2022-12-20T07:21:41;3.80;;;1.43;;
19907;SDS011;10116;53.112;7.356;2022-12-20T07:24:07;1.30;;;1.20;;
19907;SDS011;10116;53.112;7.356;2022-12-20T07:26:33;3.70;;;1.50;;
19907;SDS011;10116;53.112;7.356;2022-12-20T07:28:59;3.97;;;1.60;;
19907;SDS011;10116;53.112;7.356;2022-12-20T07:31:25;3.10;;;1.60;;
19907;SDS011;10116;53.112;7.356;2022-12-20T07:33:50;1.73;;;1.63;;
19907;SDS011;10116;53.112;7.356;2022-12-20T07:36:16;3.30;;;1.43;;
19907;SDS011;10116;53.112;7.356;2022-12-20T07:38:41;2.90;;;1.60;;
19907;SDS011;10116;53.112;7.356;2022-12-20T07:41:08;1.70;;;1.20;;
19907;SDS011;10116;53.112;7.356;2022-12-20T07:43:38;2.00;;;1.20;;
19907;SDS011;10116;53.112;7.356;2022-12-20T07:46:05;2.67;;;1.60;;
19907;SDS011;10116;53.112;7.356;2022-12-20T07:48:31;1.87;;;1.23;;
19907;SDS011;10116;53.112;7.356;2022-12-20T07:50:58;2.03;;;1.40;;
19907;SDS011;10116;53.112;7.356;2022-12-20T07:53:26;3.33;;;1.70;;
19907;SDS011;10116;53.112;7.356;2022-12-20T07:55:54;5.63;;;1.70;;
19907;SDS011;10116;53.112;7.356;2022-12-20T07:58:21;6.03;;;2.00;;
19907;SDS011;10116;53.112;7.356;2022-12-20T08:00:47;2.70;;;1.53;;
19907;SDS011;10116;53.112;7.356;2022-12-20T08:03:19;2.10;;;1.40;;
19907;SDS011;10116;53.112;7.356;2022-12-20T08:05:53;2.17;;;1.30;;
19907;SDS011;10116;53.112;7.356;2022-12-20T08:08:22;3.00;;;1.70;;
19907;SDS011;10116;53.112;7.356;2022-12-20T08:10:48;7.40;;;1.47;;
19907;SDS011;10116;53.112;7.356;2022-12-20T08:13:14;4.00;;;1.90;;
19907;SDS011;10116;53.112;7.356;2022-12-20T08:15:40;5.30;;;1.83;;
19907;SDS011;10116;53.112;7.356;2022-12-20T08:18:06;2.37;;;1.70;;
19907;SDS011;10116;53.112;7.356;2022-12-20T08:20:32;1.50;;;1.40;;
19907;SDS011;10116;53.112;7.356;2022-12-20T08:22:57;3.20;;;1.60;;
19907;SDS011;10116;53.112;7.356;2022-12-20T08:25:23;1.67;;;1.57;;
19907;SDS011;10116;53.112;7.356;2022-12-20T08:27:49;3.07;;;1.90;;
19907;SDS011;10116;53.112;7.356;2022-12-20T08:30:15;2.67;;;1.60;;
19907;SDS011;10116;53.112;7.356;2022-12-20T08:32:41;1.50;;;1.40;;
19907;SDS011;10116;53.112;7.356;2022-12-20T08:35:06;3.50;;;1.93;;
19907;SDS011;10116;53.112;7.356;2022-12-20T08:37:32;2.40;;;1.60;;
19907;SDS011;10116;53.112;7.356;2022-12-20T08:39:59;5.00;;;2.07;;
19907;SDS011;10116;53.112;7.356;2022-12-20T08:42:25;3.73;;;1.60;;
19907;SDS011;10116;53.112;7.356;2022-12-20T08:44:51;11.63;;;1.67;;
19907;SDS011;10116;53.112;7.356;2022-12-20T08:47:17;3.40;;;1.43;;
19907;SDS011;10116;53.112;7.356;2022-12-20T08:49:42;8.20;;;2.03;;
19907;SDS011;10116;53.112;7.356;2022-12-20T08:52:08;2.90;;;1.80;;
19907;SDS011;10116;53.112;7.356;2022-12-20T08:54:33;2.17;;;1.97;;
19907;SDS011;10116;53.112;7.356;2022-12-20T08:56:59;2.43;;;1.70;;
19907;SDS011;10116;53.112;7.356;2022-12-20T08:59:25;1.97;;;1.80;;
19907;SDS011;10116;53.112;7.356;2022-12-20T09:01:50;5.77;;;1.60;;
19907;SDS011;10116;53.112;7.356;2022-12-20T09:04:18;1.70;;;1.60;;
19907;SDS011;10116;53.112;7.356;2022-12-20T09:06:45;2.50;;;1.70;;
19907;SDS011;10116;53.112;7.356;2022-12-20T09:09:10;4.50;;;1.90;;
19907;SDS011;10116;53.112;7.356;2022-12-20T09:11:36;2.67;;;1.93;;
19907;SDS011;10116;53.112;7.356;2022-12-20T09:14:02;1.33;;;1.20;;
19907;SDS011;10116;53.112;7.356;2022-12-20T09:16:28;2.60;;;1.80;;
19907;SDS011;10116;53.112;7.356;2022-12-20T09:18:56;3.70;;;1.80;;
19907;SDS011;10116;53.112;7.356;2022-12-20T09:21:23;2.03;;;1.80;;
19907;SDS011;10116;53.112;7.356;2022-12-20T09:23:49;2.20;;;1.70;;
19907;SDS011;10116;53.112;7.356;2022-12-20T09:26:16;1.93;;;1.73;;
19907;SDS011;10116;53.112;7.356;2022-12-20T09:28:43;1.63;;;1.50;;
19907;SDS011;10116;53.112;7.356;2022-12-20T09:31:11;4.63;;;1.77;;
19907;SDS011;10116;53.112;7.356;2022-12-20T09:33:38;1.80;;;1.70;;
19907;SDS011;10116;53.112;7.356;2022-12-20T09:36:05;1.43;;;1.43;;
19907;SDS011;10116;53.112;7.356;2022-12-20T09:38:31;1.63;;;1.53;;
19907;SDS011;10116;53.112;7.356;2022-12-20T09:40:58;2.00;;;1.80;;
19907;SDS011;10116;53.112;7.356;2022-12-20T09:43:28;1.90;;;1.80;;
19907;SDS011;10116;53.112;7.356;2022-12-20T09:45:59;2.37;;;2.00;;
19907;SDS011;10116;53.112;7.356;2022-12-20T09:54:07;1.77;;;1.30;;
19907;SDS011;10116;53.112;7.356;2022-12-20T09:59:36;1.93;;;1.50;;
19907;SDS011;10116;53.112;7.356;2022-12-20T10:02:07;2.00;;;1.90;;
19907;SDS011;10116;53.112;7.356;2022-12-20T10:04:37;2.40;;;1.90;;
19907;SDS011;10116;53.112;7.356;2022-12-20T10:15:35;2.70;;;1.40;;
19907;SDS011;10116;53.112;7.356;2022-12-20T10:26:01;1.80;;;1.70;;
19907;SDS011;10116;53.112;7.356;2022-12-20T10:28:33;1.50;;;1.40;;
19907;SDS011;10116;53.112;7.356;2022-12-20T10:31:06;1.80;;;1.70;;
19907;SDS011;10116;53.112;7.356;2022-12-20T10:33:36;2.40;;;1.70;;
19907;SDS011;10116;53.112;7.356;2022-12-20T10:38:51;1.87;;;1.77;;
19907;SDS011;10116;53.112;7.356;2022-12-20T10:42:09;1.90;;;1.70;;
19907;SDS011;10116;53.112;7.356;2022-12-20T10:44:25;2.57;;;1.57;;
19907;SDS011;10116;53.112;7.356;2022-12-20T10:46:55;1.43;;;1.40;;
19907;SDS011;10116;53.112;7.356;2022-12-20T10:51:51;2.13;;;1.40;;
19907;SDS011;10116;53.112;7.356;2022-12-20T10:54:23;2.00;;;1.60;;
19907;SDS011;10116;53.112;7.356;2022-12-20T10:56:56;1.17;;;1.10;;
19907;SDS011;10116;53.112;7.356;2022-12-20T10:59:34;2.00;;;1.63;;
19907;SDS011;10116;53.112;7.356;2022-12-20T11:02:08;1.40;;;1.30;;
19907;SDS011;10116;53.112;7.356;2022-12-20T11:05:02;1.63;;;1.20;;
19907;SDS011;10116;53.112;7.356;2022-12-20T11:07:34;1.47;;;1.37;;
19907;SDS011;10116;53.112;7.356;2022-12-20T11:10:02;2.00;;;1.60;;
19907;SDS011;10116;53.112;7.356;2022-12-20T11:12:52;1.50;;;1.40;;
19907;SDS011;10116;53.112;7.356;2022-12-20T11:15:20;1.77;;;1.50;;
19907;SDS011;10116;53.112;7.356;2022-12-20T11:17:54;1.87;;;1.57;;
19907;SDS011;10116;53.112;7.356;2022-12-20T11:20:37;1.10;;;1.10;;
19907;SDS011;10116;53.112;7.356;2022-12-20T11:26:06;19.20;;;2.00;;
19907;SDS011;10116;53.112;7.356;2022-12-20T11:53:00;26.00;;;3.90;;
19907;SDS011;10116;53.112;7.356;2022-12-20T11:55:35;12.93;;;2.97;;
19907;SDS011;10116;53.112;7.356;2022-12-20T11:58:11;7.67;;;2.67;;
19907;SDS011;10116;53.112;7.356;2022-12-20T12:00:52;8.17;;;2.13;;
19907;SDS011;10116;53.112;7.356;2022-12-20T12:03:40;2.83;;;1.93;;
19907;SDS011;10116;53.112;7.356;2022-12-20T12:06:21;4.33;;;1.93;;
19907;SDS011;10116;53.112;7.356;2022-12-20T12:09:14;2.53;;;1.60;;
19907;SDS011;10116;53.112;7.356;2022-12-20T12:11:57;6.73;;;1.60;;
19907;SDS011;10116;53.112;7.356;2022-12-20T12:22:54;6.13;;;2.23;;
19907;SDS011;10116;53.112;7.356;2022-12-20T12:25:24;4.37;;;1.70;;
19907;SDS011;10116;53.112;7.356;2022-12-20T12:27:50;3.13;;;2.07;;
19907;SDS011;10116;53.112;7.356;2022-12-20T12:30:15;2.00;;;1.60;;
19907;SDS011;10116;53.112;7.356;2022-12-20T12:35:40;9.93;;;2.10;;
19907;SDS011;10116;53.112;7.356;2022-12-20T12:38:21;4.07;;;1.57;;
19907;SDS011;10116;53.112;7.356;2022-12-20T12:46:32;5.23;;;1.33;;
19907;SDS011;10116;53.112;7.356;2022-12-20T12:49:02;1.60;;;1.40;;
19907;SDS011;10116;53.112;7.356;2022-12-20T12:51:34;4.17;;;1.57;;
19907;SDS011;10116;53.112;7.356;2022-12-20T12:56:48;1.40;;;1.30;;
19907;SDS011;10116;53.112;7.356;2022-12-20T12:59:19;6.20;;;1.27;;
19907;SDS011;10116;53.112;7.356;2022-12-20T13:07:45;1.87;;;1.40;;
19907;SDS011;10116;53.112;7.356;2022-12-20T13:17:49;7.27;;;1.13;;
19907;SDS011;10116;53.112;7.356;2022-12-20T13:20:32;2.00;;;1.80;;
19907;SDS011;10116;53.112;7.356;2022-12-20T13:30:40;1.67;;;1.23;;
19907;SDS011;10116;53.112;7.356;2022-12-20T13:33:41;6.93;;;1.27;;
19907;SDS011;10116;53.112;7.356;2022-12-20T13:43:47;1.53;;;1.33;;
19907;SDS011;10116;53.112;7.356;2022-12-20T13:46:31;1.37;;;1.27;;
19907;SDS011;10116;53.112;7.356;2022-12-20T13:49:07;1.43;;;1.20;;
19907;SDS011;10116;53.112;7.356;2022-12-20T13:51:36;1.63;;;1.30;;
19907;SDS011;10116;53.112;7.356;2022-12-20T13:54:23;1.40;;;1.30;;
19907;SDS011;10116;53.112;7.356;2022-12-20T13:56:49;8.23;;;1.30;;
19907;SDS011;10116;53.112;7.356;2022-12-20T13:59:23;1.37;;;1.20;;
19907;SDS011;10116;53.112;7.356;2022-12-20T14:01:53;1.20;;;1.10;;
19907;SDS011;10116;53.112;7.356;2022-12-20T14:04:21;1.60;;;1.20;;
19907;SDS011;10116;53.112;7.356;2022-12-20T14:07:01;1.47;;;1.30;;
19907;SDS011;10116;53.112;7.356;2022-12-20T14:09:29;1.13;;;0.87;;
19907;SDS011;10116;53.112;7.356;2022-12-20T14:14:30;1.00;;;1.00;;
19907;SDS011;10116;53.112;7.356;2022-12-20T14:17:17;1.60;;;1.47;;
19907;SDS011;10116;53.112;7.356;2022-12-20T14:20:04;1.13;;;1.00;;
19907;SDS011;10116;53.112;7.356;2022-12-20T14:22:52;1.50;;;1.40;;
19907;SDS011;10116;53.112;7.356;2022-12-20T14:25:21;1.50;;;1.20;;
19907;SDS011;10116;53.112;7.356;2022-12-20T14:27:54;1.47;;;1.37;;
19907;SDS011;10116;53.112;7.356;2022-12-20T14:30:30;1.40;;;1.30;;
19907;SDS011;10116;53.112;7.356;2022-12-20T14:33:00;1.87;;;1.07;;
19907;SDS011;10116;53.112;7.356;2022-12-20T14:35:26;2.10;;;1.33;;
19907;SDS011;10116;53.112;7.356;2022-12-20T14:37:56;1.47;;;1.37;;
19907;SDS011;10116;53.112;7.356;2022-12-20T14:40:24;1.60;;;1.50;;
19907;SDS011;10116;53.112;7.356;2022-12-20T14:42:50;1.30;;;1.20;;
19907;SDS011;10116;53.112;7.356;2022-12-20T14:45:18;1.83;;;1.30;;
19907;SDS011;10116;53.112;7.356;2022-12-20T14:47:50;1.30;;;1.20;;
19907;SDS011;10116;53.112;7.356;2022-12-20T14:50:28;1.67;;;1.17;;
19907;SDS011;10116;53.112;7.356;2022-12-20T14:52:56;1.07;;;0.93;;
19907;SDS011;10116;53.112;7.356;2022-12-20T14:55:28;1.37;;;1.27;;
19907;SDS011;10116;53.112;7.356;2022-12-20T14:58:00;0.90;;;0.90;;
19907;SDS011;10116;53.112;7.356;2022-12-20T15:00:30;1.13;;;1.13;;
19907;SDS011;10116;53.112;7.356;2022-12-20T15:02:58;1.63;;;1.30;;
19907;SDS011;10116;53.112;7.356;2022-12-20T15:08:15;2.90;;;1.47;;
19907;SDS011;10116;53.112;7.356;2022-12-20T15:10:57;2.53;;;1.30;;
19907;SDS011;10116;53.112;7.356;2022-12-20T15:15:57;2.10;;;1.90;;
19907;SDS011;10116;53.112;7.356;2022-12-20T15:18:25;2.77;;;1.57;;
19907;SDS011;10116;53.112;7.356;2022-12-20T15:21:01;1.93;;;1.50;;
19907;SDS011;10116;53.112;7.356;2022-12-20T15:23:29;2.33;;;1.90;;
19907;SDS011;10116;53.112;7.356;2022-12-20T15:25:56;1.70;;;1.60;;
19907;SDS011;10116;53.112;7.356;2022-12-20T15:28:22;1.63;;;1.53;;
19907;SDS011;10116;53.112;7.356;2022-12-20T15:30:50;1.53;;;1.47;;
19907;SDS011;10116;53.112;7.356;2022-12-20T15:33:19;2.30;;;1.70;;
19907;SDS011;10116;53.112;7.356;2022-12-20T15:35:49;2.77;;;1.60;;
19907;SDS011;10116;53.112;7.356;2022-12-20T15:38:25;1.57;;;1.50;;
19907;SDS011;10116;53.112;7.356;2022-12-20T15:40:52;1.97;;;1.63;;
19907;SDS011;10116;53.112;7.356;2022-12-20T15:43:20;1.70;;;1.60;;
19907;SDS011;10116;53.112;7.356;2022-12-20T15:45:49;2.40;;;1.90;;
19907;SDS011;10116;53.112;7.356;2022-12-20T15:48:17;1.57;;;1.47;;
19907;SDS011;10116;53.112;7.356;2022-12-20T15:50:48;1.53;;;1.47;;
19907;SDS011;10116;53.112;7.356;2022-12-20T15:53:20;1.20;;;1.20;;
19907;SDS011;10116;53.112;7.356;2022-12-20T15:55:51;1.23;;;1.20;;
19907;SDS011;10116;53.112;7.356;2022-12-20T15:58:18;2.10;;;1.40;;
19907;SDS011;10116;53.112;7.356;2022-12-20T16:00:44;1.40;;;1.40;;
19907;SDS011;10116;53.112;7.356;2022-12-20T16:03:19;1.67;;;1.57;;
19907;SDS011;10116;53.112;7.356;2022-12-20T16:05:47;1.93;;;1.70;;
19907;SDS011;10116;53.112;7.356;2022-12-20T16:08:15;1.47;;;1.47;;
19907;SDS011;10116;53.112;7.356;2022-12-20T16:10:42;1.60;;;1.50;;
19907;SDS011;10116;53.112;7.356;2022-12-20T16:13:13;2.10;;;1.40;;
19907;SDS011;10116;53.112;7.356;2022-12-20T16:15:40;1.33;;;1.23;;
19907;SDS011;10116;53.112;7.356;2022-12-20T16:18:06;1.33;;;1.23;;
19907;SDS011;10116;53.112;7.356;2022-12-20T16:20:32;1.70;;;1.60;;
19907;SDS011;10116;53.112;7.356;2022-12-20T16:22:59;1.30;;;1.30;;
19907;SDS011;10116;53.112;7.356;2022-12-20T16:25:27;1.47;;;1.47;;
19907;SDS011;10116;53.112;7.356;2022-12-20T16:27:54;3.07;;;1.67;;
19907;SDS011;10116;53.112;7.356;2022-12-20T16:30:20;2.93;;;1.50;;
19907;SDS011;10116;53.112;7.356;2022-12-20T16:32:47;1.63;;;1.30;;
19907;SDS011;10116;53.112;7.356;2022-12-20T16:35:24;2.10;;;1.23;;
19907;SDS011;10116;53.112;7.356;2022-12-20T16:37:53;1.37;;;1.27;;
19907;SDS011;10116;53.112;7.356;2022-12-20T16:40:20;4.13;;;1.93;;
19907;SDS011;10116;53.112;7.356;2022-12-20T16:42:47;1.60;;;1.50;;
19907;SDS011;10116;53.112;7.356;2022-12-20T16:45:17;1.77;;;1.30;;
19907;SDS011;10116;53.112;7.356;2022-12-20T16:47:45;1.40;;;1.30;;
19907;SDS011;10116;53.112;7.356;2022-12-20T16:50:11;11.80;;;1.43;;
19907;SDS011;10116;53.112;7.356;2022-12-20T16:52:37;1.40;;;1.40;;
19907;SDS011;10116;53.112;7.356;2022-12-20T16:55:03;2.37;;;1.80;;
19907;SDS011;10116;53.112;7.356;2022-12-20T16:57:30;2.20;;;1.60;;
19907;SDS011;10116;53.112;7.356;2022-12-20T16:59:56;1.77;;;1.53;;
19907;SDS011;10116;53.112;7.356;2022-12-20T17:02:26;1.77;;;1.67;;
19907;SDS011;10116;53.112;7.356;2022-12-20T17:04:53;1.60;;;1.50;;
19907;SDS011;10116;53.112;7.356;2022-12-20T17:07:19;3.43;;;1.30;;